Trencin, Slovakia

4:56 PM CET on December 25, 2014 (GMT +0100)
Hroznova Lhota | Change Station
CLOSE
Current Station
Personal Weather Station
Location: Hroznova Lhota, JIHOMORAVSKY
Elevation: 663 ft
Nearby Weather Stations

Elev 663 ft 48.91 °N, 17.42 °E | Updated 47 seconds ago

Mostly Cloudy
Mostly Cloudy
41.0 °F
Feels Like 41 °F
N
2.2
Wind Variable Wind from WNW
Gusts 9.8 mph

Today
High -- | Low -- °F
--% Chance of Precip.
Yesterday
High -- | Low -- °F
Precip. -- in
7:41 AM 3:57 PM
Waxing Crescent, 17% visible
Pressure 30.12 in
Visibility 6.2 miles
Clouds Mostly Cloudy 4300 ft
Windchill 41 °F
Dew Point 31 °F
Humidity 68%
Rainfall 0.02 in
Snow Depth Not available.
UV 0 out of 12
Pollen Not available.
Air Quality Not available.
Flu Activity Not available.
METAR LKTB 251530Z 27012KT 9999 BKN043 04/M03 Q1020 NOSIG

More Conditions Fewer Conditions

Pressure 30.12 in
Visibility 6.2 miles
Clouds Mostly Cloudy 4300 ft
Windchill 41 °F
Dew Point 31 °F
Humidity 68%
Rainfall 0.02 in
Snow Depth Not available.
UV 0 out of 12
Pollen Not available.
Air Quality Not available.
Flu Activity Not available.
METAR LKTB 251530Z 27012KT 9999 BKN043 04/M03 Q1020 NOSIG

More Conditions Fewer Conditions

10-Day Weather Forecast

Almanac

Astronomy

Dec. 25, 2014 Rise Set
Actual Time
Civil Twilight
Nautical Twilight
Astronomical Twilight
Moon
Length of Visible Light
Length of Day
Tomorrow will be .
, % of the Moon is Illuminated

Today's Extremes

Country Highs Country Lows

Community

WunderPhotos

Upload Photos

1,780,315 photos uploaded!

WunderBlogs® & News

Nearby

Air Quality

  Air Quality AQ Index Pollutant
Not available.

Snow Depth

Station Depth Elevation

Earthquake Activity

City Distance Mag. Time & Date
Minimum magnitude displayed is 2.5.

Coastal Water Temperatures

Place Temperature

Nearby Weather Stations